Time;durP1;ratioP1;P1;durP2;ratioP2;P2;SDS_P1;SDS_P2;PMS_P1;PMS_P2;Temp;Humidity;BMP_temperature;BMP_pressure;BME280_temperature;BME280_humidity;BME280_pressure;Samples;Min_cycle;Max_cycle;Signal;HPM_P1;HPM_P2
2022/10/05 00:02:17;;;;;;;16.97;11.33;;;;;;;;;;5075397;28;20450;-67
2022/10/05 00:04:44;;;;;;;16.47;10.40;;;;;;;;;;5075695;28;20427;-67
2022/10/05 00:07:13;;;;;;;15.80;11.43;;;;;;;;;;5078437;28;20447;-67
2022/10/05 00:09:40;;;;;;;15.23;10.93;;;;;;;;;;5076715;28;20443;-67
2022/10/05 00:12:13;;;;;;;18.53;11.47;;;;;;;;;;5076130;28;20624;-66
2022/10/05 00:14:40;;;;;;;16.60;10.73;;;;;;;;;;5075673;28;20779;-66
2022/10/05 00:17:11;;;;;;;13.03;10.17;;;;;;;;;;5075132;28;20445;-67
2022/10/05 00:19:40;;;;;;;12.37;10.80;;;;;;;;;;5075208;28;20434;-66
2022/10/05 00:22:11;;;;;;;13.83;10.57;;;;;;;;;;5075029;28;20928;-66
2022/10/05 00:24:38;;;;;;;22.40;10.80;;;;;;;;;;5076454;28;20469;-66
2022/10/05 00:27:13;;;;;;;12.10;10.03;;;;;;;;;;5076093;28;20452;-66
2022/10/05 00:29:40;;;;;;;15.43;10.30;;;;;;;;;;5075214;28;20771;-66
2022/10/05 00:32:09;;;;;;;14.10;10.80;;;;;;;;;;5074863;28;20957;-66
2022/10/05 00:34:36;;;;;;;14.33;10.93;;;;;;;;;;5074405;28;20453;-66
2022/10/05 00:37:05;;;;;;;13.27;9.53;;;;;;;;;;5075132;28;20489;-66
2022/10/05 00:39:33;;;;;;;14.80;10.60;;;;;;;;;;5075021;28;20442;-66
2022/10/05 00:42:08;;;;;;;12.13;9.43;;;;;;;;;;5074770;28;20442;-66
2022/10/05 00:44:38;;;;;;;13.33;9.33;;;;;;;;;;5075636;28;20440;-66
2022/10/05 00:47:11;;;;;;;18.90;10.40;;;;;;;;;;5075114;28;20822;-66
2022/10/05 00:49:59;;;;;;;10.60;9.13;;;;;;;;;;5074619;28;20499;-66
2022/10/05 00:52:30;;;;;;;12.40;10.03;;;;;;;;;;5075222;28;20443;-66
2022/10/05 00:55:00;;;;;;;11.20;8.97;;;;;;;;;;5074972;28;20467;-66
2022/10/05 00:57:34;;;;;;;10.27;8.80;;;;;;;;;;5075244;28;20443;-66
2022/10/05 01:00:04;;;;;;;14.83;9.20;;;;;;;;;;5074460;28;20503;-66
2022/10/05 01:02:36;;;;;;;10.30;9.23;;;;;;;;;;5074746;28;20436;-66
2022/10/05 01:05:07;;;;;;;15.10;9.83;;;;;;;;;;5075111;28;20547;-66
2022/10/05 01:07:40;;;;;;;18.07;10.20;;;;;;;;;;5074841;28;20460;-66
2022/10/05 01:10:14;;;;;;;11.70;9.20;;;;;;;;;;5074728;28;20510;-66
2022/10/05 01:12:45;;;;;;;9.63;8.63;;;;;;;;;;5074141;28;20509;-66
2022/10/05 01:15:16;;;;;;;10.57;9.10;;;;;;;;;;5074219;28;20916;-66
2022/10/05 01:17:47;;;;;;;12.00;8.70;;;;;;;;;;5074053;28;20435;-66
2022/10/05 01:20:32;;;;;;;11.07;9.93;;;;;;;;;;5074148;28;20435;-66
2022/10/05 01:23:12;;;;;;;15.93;8.93;;;;;;;;;;5073583;28;20472;-66
2022/10/05 01:25:47;;;;;;;11.40;8.10;;;;;;;;;;5074432;28;20785;-66
2022/10/05 01:28:19;;;;;;;11.40;8.63;;;;;;;;;;5073795;28;20435;-66
2022/10/05 01:30:48;;;;;;;10.90;8.23;;;;;;;;;;5073790;28;20448;-66
2022/10/05 01:33:19;;;;;;;10.73;8.80;;;;;;;;;;5073689;28;20451;-66
2022/10/05 01:35:52;;;;;;;16.73;8.90;;;;;;;;;;5074214;28;20474;-66
2022/10/05 01:38:24;;;;;;;11.40;8.73;;;;;;;;;;5074217;28;20439;-67
2022/10/05 01:40:55;;;;;;;14.90;9.53;;;;;;;;;;5073676;28;20433;-66
2022/10/05 01:43:30;;;;;;;12.77;9.33;;;;;;;;;;5074142;28;20464;-66
2022/10/05 01:46:01;;;;;;;10.10;8.90;;;;;;;;;;5073508;28;20437;-66
2022/10/05 01:48:33;;;;;;;11.00;8.97;;;;;;;;;;5073684;28;20456;-66
2022/10/05 01:51:04;;;;;;;11.30;9.97;;;;;;;;;;5074218;28;20439;-67
2022/10/05 01:53:36;;;;;;;12.67;8.70;;;;;;;;;;5073946;28;20458;-67
2022/10/05 01:56:10;;;;;;;14.07;9.17;;;;;;;;;;5073894;28;20472;-66
2022/10/05 01:58:44;;;;;;;16.67;9.60;;;;;;;;;;5073636;28;21287;-66
2022/10/05 02:01:15;;;;;;;10.80;9.50;;;;;;;;;;5074071;28;20492;-66
2022/10/05 02:03:45;;;;;;;11.43;9.03;;;;;;;;;;5074214;28;20433;-66
2022/10/05 02:06:15;;;;;;;10.97;8.80;;;;;;;;;;5074359;28;20441;-66
2022/10/05 02:08:44;;;;;;;9.50;8.30;;;;;;;;;;5073385;28;20943;-66
2022/10/05 02:11:13;;;;;;;16.60;9.90;;;;;;;;;;5073221;28;20556;-66
2022/10/05 02:13:43;;;;;;;11.07;9.00;;;;;;;;;;5073821;28;20442;-66
2022/10/05 02:16:14;;;;;;;17.73;8.73;;;;;;;;;;5073067;28;20477;-66
2022/10/05 02:18:44;;;;;;;10.23;9.23;;;;;;;;;;5073739;28;20428;-67
2022/10/05 02:21:11;;;;;;;11.80;9.00;;;;;;;;;;5073396;28;20456;-66
2022/10/05 02:23:40;;;;;;;16.13;8.47;;;;;;;;;;5073166;28;20465;-66
2022/10/05 02:26:09;;;;;;;10.93;8.40;;;;;;;;;;5073962;28;20445;-66
2022/10/05 02:28:39;;;;;;;10.73;8.70;;;;;;;;;;5073329;28;20961;-66
2022/10/05 02:31:10;;;;;;;14.70;8.70;;;;;;;;;;5077085;28;20477;-67
2022/10/05 02:33:37;;;;;;;10.17;8.70;;;;;;;;;;5079338;28;20448;-67
2022/10/05 02:36:11;;;;;;;14.10;10.07;;;;;;;;;;5078023;28;20480;-67
2022/10/05 02:38:43;;;;;;;12.13;9.50;;;;;;;;;;5076590;28;20490;-67
2022/10/05 02:41:15;;;;;;;10.00;9.00;;;;;;;;;;5073292;28;20434;-66
2022/10/05 02:43:47;;;;;;;13.47;10.23;;;;;;;;;;5073494;28;20437;-66
2022/10/05 02:46:20;;;;;;;13.17;9.30;;;;;;;;;;5073103;28;20434;-67
2022/10/05 02:48:51;;;;;;;12.27;9.53;;;;;;;;;;5072874;28;20436;-66
2022/10/05 02:51:21;;;;;;;14.33;9.90;;;;;;;;;;5072781;28;20437;-66
2022/10/05 02:53:56;;;;;;;12.53;9.57;;;;;;;;;;5073212;28;20471;-66
2022/10/05 02:56:27;;;;;;;13.57;9.93;;;;;;;;;;5072881;28;20532;-66
2022/10/05 02:59:00;;;;;;;14.63;9.80;;;;;;;;;;5077695;28;20420;-66
2022/10/05 03:01:32;;;;;;;13.07;9.50;;;;;;;;;;5076705;28;20424;-67
2022/10/05 03:04:06;;;;;;;11.27;9.03;;;;;;;;;;5077568;28;20433;-67
2022/10/05 03:06:35;;;;;;;11.47;10.37;;;;;;;;;;5076755;28;20899;-67
2022/10/05 03:09:04;;;;;;;13.57;9.80;;;;;;;;;;5076975;28;20774;-67
2022/10/05 03:11:33;;;;;;;16.37;10.00;;;;;;;;;;5076857;28;20450;-67
2022/10/05 03:14:04;;;;;;;14.10;10.10;;;;;;;;;;5077284;28;20441;-67
2022/10/05 03:16:40;;;;;;;12.60;10.07;;;;;;;;;;5076766;28;20476;-66
2022/10/05 03:19:14;;;;;;;18.50;10.73;;;;;;;;;;5076987;28;20444;-66
2022/10/05 03:21:51;;;;;;;13.63;11.60;;;;;;;;;;5076965;28;20429;-67
2022/10/05 03:24:25;;;;;;;12.20;10.33;;;;;;;;;;5076359;28;20577;-66
2022/10/05 03:26:55;;;;;;;12.80;11.40;;;;;;;;;;5076188;28;20440;-66
2022/10/05 03:29:26;;;;;;;19.90;10.90;;;;;;;;;;5076484;28;20446;-66
2022/10/05 03:31:58;;;;;;;12.60;11.30;;;;;;;;;;5076147;28;20444;-66
2022/10/05 03:34:28;;;;;;;15.00;11.33;;;;;;;;;;5077039;28;20479;-67
2022/10/05 03:36:56;;;;;;;17.00;10.20;;;;;;;;;;5076618;28;20480;-66
2022/10/05 03:39:27;;;;;;;15.30;11.20;;;;;;;;;;5076742;28;20447;-67
2022/10/05 03:41:59;;;;;;;14.93;11.97;;;;;;;;;;5076279;28;20775;-66
2022/10/05 03:44:47;;;;;;;15.10;10.93;;;;;;;;;;5075903;28;20935;-66
2022/10/05 03:47:22;;;;;;;12.67;11.33;;;;;;;;;;5071678;28;20468;-66
2022/10/05 03:49:53;;;;;;;16.90;11.20;;;;;;;;;;5076401;28;20437;-67
2022/10/05 03:52:22;;;;;;;16.03;10.77;;;;;;;;;;5076607;28;20432;-67
2022/10/05 03:54:52;;;;;;;18.57;11.73;;;;;;;;;;5075562;28;20474;-67
2022/10/05 03:57:20;;;;;;;19.23;11.50;;;;;;;;;;5075907;28;20487;-67
2022/10/05 03:59:53;;;;;;;12.97;11.37;;;;;;;;;;5074567;28;20445;-67
2022/10/05 04:02:24;;;;;;;16.10;11.60;;;;;;;;;;5075663;28;20433;-67
2022/10/05 04:04:53;;;;;;;18.67;11.70;;;;;;;;;;5075823;28;20529;-67
2022/10/05 04:07:26;;;;;;;19.90;11.67;;;;;;;;;;5075569;28;20450;-67
2022/10/05 04:09:53;;;;;;;14.53;11.60;;;;;;;;;;5075298;28;20443;-67
2022/10/05 04:12:24;;;;;;;17.10;11.23;;;;;;;;;;5075570;28;20448;-67
2022/10/05 04:14:54;;;;;;;20.43;12.70;;;;;;;;;;5075773;28;20421;-66
2022/10/05 04:17:28;;;;;;;14.70;11.77;;;;;;;;;;5074890;28;20476;-67
2022/10/05 04:19:59;;;;;;;16.90;12.73;;;;;;;;;;5075499;28;20432;-67
2022/10/05 04:22:31;;;;;;;17.70;11.87;;;;;;;;;;5075320;28;20448;-67
2022/10/05 04:25:01;;;;;;;13.70;11.40;;;;;;;;;;5074920;28;20484;-66
2022/10/05 04:27:31;;;;;;;12.77;10.80;;;;;;;;;;5075221;28;20429;-66
2022/10/05 04:30:01;;;;;;;13.10;11.33;;;;;;;;;;5075183;28;20483;-67
2022/10/05 04:32:36;;;;;;;14.00;10.93;;;;;;;;;;5075038;28;20468;-67
2022/10/05 04:35:14;;;;;;;14.90;12.00;;;;;;;;;;5075260;28;20791;-66
2022/10/05 04:37:46;;;;;;;21.10;10.43;;;;;;;;;;5075431;28;20475;-69
2022/10/05 04:40:18;;;;;;;15.80;11.30;;;;;;;;;;5075186;28;20430;-65
2022/10/05 04:42:48;;;;;;;20.93;11.13;;;;;;;;;;5074922;28;20434;-66
2022/10/05 04:45:22;;;;;;;15.77;11.40;;;;;;;;;;5074763;28;20443;-66
2022/10/05 04:47:59;;;;;;;11.47;10.33;;;;;;;;;;5074530;28;20437;-67
2022/10/05 04:50:32;;;;;;;14.30;11.33;;;;;;;;;;5074736;28;20441;-67
2022/10/05 04:53:02;;;;;;;15.73;11.20;;;;;;;;;;5074434;28;20450;-67
2022/10/05 04:55:32;;;;;;;16.30;10.87;;;;;;;;;;5074718;28;20440;-67
2022/10/05 04:58:03;;;;;;;14.97;10.70;;;;;;;;;;5075138;28;20566;-67
2022/10/05 05:00:34;;;;;;;14.93;11.13;;;;;;;;;;5075335;28;20964;-67
2022/10/05 05:03:15;;;;;;;16.47;11.57;;;;;;;;;;5075879;28;20425;-67
2022/10/05 05:05:46;;;;;;;19.10;11.03;;;;;;;;;;5074466;28;20566;-67
2022/10/05 05:08:21;;;;;;;18.07;12.37;;;;;;;;;;5074816;28;20440;-66
2022/10/05 05:10:56;;;;;;;14.30;11.10;;;;;;;;;;5074490;28;20526;-67
2022/10/05 05:13:42;;;;;;;13.20;11.07;;;;;;;;;;5074085;28;20441;-66
2022/10/05 05:16:11;;;;;;;14.43;11.60;;;;;;;;;;5074228;28;20436;-67
2022/10/05 05:18:46;;;;;;;17.20;10.53;;;;;;;;;;5074295;28;20503;-66
2022/10/05 05:21:17;;;;;;;11.60;9.60;;;;;;;;;;5075867;28;20482;-66
2022/10/05 05:23:49;;;;;;;22.83;11.97;;;;;;;;;;5075131;28;20480;-67
2022/10/05 05:26:22;;;;;;;20.10;12.70;;;;;;;;;;5074839;28;20520;-67
2022/10/05 05:28:51;;;;;;;12.03;10.60;;;;;;;;;;5074562;28;20437;-66
2022/10/05 05:31:25;;;;;;;15.60;11.03;;;;;;;;;;5073752;28;20817;-67
2022/10/05 05:33:57;;;;;;;15.03;11.87;;;;;;;;;;5073739;28;20431;-66
2022/10/05 05:36:37;;;;;;;11.67;9.93;;;;;;;;;;5073571;28;20510;-66
2022/10/05 05:39:15;;;;;;;14.80;10.87;;;;;;;;;;5073582;28;20433;-66
2022/10/05 05:41:46;;;;;;;11.57;10.33;;;;;;;;;;5073626;28;20429;-67
2022/10/05 05:44:19;;;;;;;16.70;10.23;;;;;;;;;;5073587;28;20430;-66
2022/10/05 05:46:50;;;;;;;15.10;11.57;;;;;;;;;;5073697;28;20437;-66
2022/10/05 05:49:23;;;;;;;13.33;10.60;;;;;;;;;;5073185;28;20988;-66
2022/10/05 05:51:52;;;;;;;13.10;10.23;;;;;;;;;;5073371;28;20526;-66
2022/10/05 05:54:25;;;;;;;17.47;10.37;;;;;;;;;;5073004;28;20466;-66
2022/10/05 05:56:55;;;;;;;14.20;11.00;;;;;;;;;;5073511;28;20480;-66
2022/10/05 05:59:25;;;;;;;10.80;9.70;;;;;;;;;;5073035;28;20455;-66
2022/10/05 06:01:54;;;;;;;11.53;9.37;;;;;;;;;;5073496;28;20443;-66
2022/10/05 06:04:26;;;;;;;12.03;9.40;;;;;;;;;;5074097;28;20449;-66
2022/10/05 06:06:55;;;;;;;15.20;9.77;;;;;;;;;;5073664;28;20431;-66
2022/10/05 06:09:25;;;;;;;14.03;10.53;;;;;;;;;;5073121;28;20452;-65
2022/10/05 06:11:54;;;;;;;17.30;11.20;;;;;;;;;;5073532;28;20439;-66
2022/10/05 06:14:23;;;;;;;12.57;9.20;;;;;;;;;;5073136;28;20446;-66
2022/10/05 06:16:52;;;;;;;13.17;10.27;;;;;;;;;;5073244;28;20449;-66
2022/10/05 06:19:22;;;;;;;13.60;9.63;;;;;;;;;;5073005;28;20947;-66
2022/10/05 06:21:52;;;;;;;17.13;10.20;;;;;;;;;;5073136;28;20440;-67
2022/10/05 06:24:22;;;;;;;15.93;9.83;;;;;;;;;;5073308;28;20486;-67
2022/10/05 06:27:04;;;;;;;17.37;9.97;;;;;;;;;;5073556;28;20451;-66
2022/10/05 06:29:37;;;;;;;15.87;9.70;;;;;;;;;;5071218;28;20448;-66
2022/10/05 06:32:06;;;;;;;11.10;9.80;;;;;;;;;;5072444;28;20440;-66
2022/10/05 06:34:39;;;;;;;12.27;10.00;;;;;;;;;;5072864;28;20453;-65
2022/10/05 06:37:12;;;;;;;14.80;10.13;;;;;;;;;;5073467;28;20477;-66
2022/10/05 06:40:00;;;;;;;14.27;10.57;;;;;;;;;;5073705;28;20436;-66
2022/10/05 06:42:33;;;;;;;15.13;9.90;;;;;;;;;;5068113;28;20454;-65
2022/10/05 06:45:02;;;;;;;13.70;9.70;;;;;;;;;;5073393;28;20488;-66
2022/10/05 06:47:34;;;;;;;12.20;10.13;;;;;;;;;;5072890;28;20455;-66
2022/10/05 06:50:05;;;;;;;16.93;9.33;;;;;;;;;;5073743;28;20439;-66
2022/10/05 06:52:37;;;;;;;9.80;8.80;;;;;;;;;;5072464;28;20579;-66
2022/10/05 06:55:15;;;;;;;14.40;9.70;;;;;;;;;;5073620;28;20421;-66
2022/10/05 06:57:50;;;;;;;16.57;9.97;;;;;;;;;;5073199;28;20516;-66
2022/10/05 07:00:18;;;;;;;16.53;9.47;;;;;;;;;;5072736;28;20434;-67
2022/10/05 07:02:49;;;;;;;15.07;9.17;;;;;;;;;;5072536;28;20571;-66
2022/10/05 07:05:35;;;;;;;20.00;9.40;;;;;;;;;;5072646;28;20438;-66
2022/10/05 07:08:06;;;;;;;13.30;9.03;;;;;;;;;;5072716;28;20942;-66
2022/10/05 07:10:35;;;;;;;10.43;8.50;;;;;;;;;;5073030;28;20518;-65
2022/10/05 07:13:09;;;;;;;9.80;8.87;;;;;;;;;;5072680;28;20454;-66
2022/10/05 07:15:42;;;;;;;9.90;8.70;;;;;;;;;;5073484;28;20435;-66
2022/10/05 07:18:21;;;;;;;11.40;9.23;;;;;;;;;;5076599;28;20501;-67
2022/10/05 07:20:53;;;;;;;13.03;8.40;;;;;;;;;;5072835;28;20467;-67
2022/10/05 07:23:25;;;;;;;18.53;8.80;;;;;;;;;;5073653;28;20572;-67
2022/10/05 07:25:58;;;;;;;14.80;9.37;;;;;;;;;;5072686;28;20440;-66
2022/10/05 07:28:29;;;;;;;9.63;8.53;;;;;;;;;;5072278;28;20488;-66
2022/10/05 07:30:59;;;;;;;16.57;8.60;;;;;;;;;;5072688;28;20445;-66
2022/10/05 07:33:29;;;;;;;9.90;7.80;;;;;;;;;;5072375;28;20444;-67
2022/10/05 07:38:55;;;;;;;16.20;9.33;;;;;;;;;;5072262;28;20459;-66
2022/10/05 07:41:25;;;;;;;9.93;7.53;;;;;;;;;;5072647;28;20432;-67
2022/10/05 07:43:56;;;;;;;9.43;8.30;;;;;;;;;;5072389;28;20537;-67
2022/10/05 07:46:28;;;;;;;8.67;7.83;;;;;;;;;;5076114;28;20438;-66
2022/10/05 07:49:02;;;;;;;10.43;7.73;;;;;;;;;;5075647;28;20503;-67
2022/10/05 07:51:32;;;;;;;15.80;8.50;;;;;;;;;;5076004;28;20473;-66
2022/10/05 07:54:07;;;;;;;9.27;8.33;;;;;;;;;;5075413;28;20456;-66
2022/10/05 07:56:37;;;;;;;10.63;7.93;;;;;;;;;;5076179;28;20423;-66
2022/10/05 07:59:06;;;;;;;11.20;7.27;;;;;;;;;;5075466;28;20486;-67
2022/10/05 08:01:35;;;;;;;13.07;8.17;;;;;;;;;;5075852;28;20446;-66
2022/10/05 08:04:04;;;;;;;9.57;7.33;;;;;;;;;;5075151;28;20542;-66
2022/10/05 08:06:35;;;;;;;11.90;8.20;;;;;;;;;;5075377;28;20486;-66
2022/10/05 08:09:08;;;;;;;11.97;6.90;;;;;;;;;;5075749;28;20522;-66
2022/10/05 08:11:39;;;;;;;16.43;7.83;;;;;;;;;;5075777;28;20829;-66
2022/10/05 08:14:09;;;;;;;12.43;7.27;;;;;;;;;;5075121;28;20462;-67
2022/10/05 08:16:38;;;;;;;10.07;7.13;;;;;;;;;;5075419;28;20431;-66
2022/10/05 08:19:08;;;;;;;8.07;6.90;;;;;;;;;;5075438;28;20482;-65
2022/10/05 08:21:38;;;;;;;10.07;7.40;;;;;;;;;;5075344;28;20453;-69
2022/10/05 08:24:11;;;;;;;8.57;6.60;;;;;;;;;;5074963;28;20481;-67
2022/10/05 08:26:41;;;;;;;9.20;6.50;;;;;;;;;;5075849;28;20458;-67
2022/10/05 08:29:15;;;;;;;9.47;7.50;;;;;;;;;;5074914;28;20455;-67
2022/10/05 08:31:43;;;;;;;14.63;5.93;;;;;;;;;;5074907;28;20431;-66
2022/10/05 08:34:20;;;;;;;7.10;5.40;;;;;;;;;;5075167;28;20499;-66
2022/10/05 08:36:54;;;;;;;6.43;5.10;;;;;;;;;;5075193;28;20435;-67
2022/10/05 08:39:24;;;;;;;5.33;4.83;;;;;;;;;;5074983;28;20470;-68
2022/10/05 08:41:59;;;;;;;7.57;5.30;;;;;;;;;;5074672;28;20461;-67
2022/10/05 08:44:44;;;;;;;7.50;4.70;;;;;;;;;;5074919;28;20433;-66
2022/10/05 08:47:19;;;;;;;5.87;5.20;;;;;;;;;;5075128;28;20438;-67
2022/10/05 08:50:10;;;;;;;7.07;4.93;;;;;;;;;;5075189;28;20894;-67
2022/10/05 08:52:46;;;;;;;6.60;5.30;;;;;;;;;;5074463;28;20432;-67
2022/10/05 08:55:31;;;;;;;7.50;5.47;;;;;;;;;;5074480;28;20434;-67
2022/10/05 08:58:11;;;;;;;6.90;5.10;;;;;;;;;;5075081;28;20479;-67
2022/10/05 09:00:46;;;;;;;8.73;6.63;;;;;;;;;;5074834;28;20788;-67
2022/10/05 09:03:23;;;;;;;6.83;5.10;;;;;;;;;;5074624;28;20912;-67
2022/10/05 09:06:06;;;;;;;8.00;5.50;;;;;;;;;;5074698;28;20425;-67
2022/10/05 09:08:51;;;;;;;5.53;5.03;;;;;;;;;;5074962;28;20445;-67
2022/10/05 09:11:21;;;;;;;4.70;4.30;;;;;;;;;;5074524;28;20430;-68
2022/10/05 09:14:00;;;;;;;5.67;5.10;;;;;;;;;;5074895;28;20919;-67
2022/10/05 09:16:44;;;;;;;7.60;4.93;;;;;;;;;;5074771;28;20435;-67
2022/10/05 09:19:29;;;;;;;5.90;5.03;;;;;;;;;;5074505;28;20840;-67
2022/10/05 09:21:58;;;;;;;5.73;5.13;;;;;;;;;;5067418;28;20451;-67
2022/10/05 09:24:29;;;;;;;7.63;4.70;;;;;;;;;;5073906;28;20573;-66
2022/10/05 09:27:01;;;;;;;7.70;5.30;;;;;;;;;;5074642;28;20446;-66
2022/10/05 09:29:46;;;;;;;5.33;4.80;;;;;;;;;;5074038;28;20500;-67
2022/10/05 09:32:18;;;;;;;5.20;4.73;;;;;;;;;;5073640;28;20477;-67
2022/10/05 09:35:03;;;;;;;7.90;4.93;;;;;;;;;;5074375;28;20432;-67
2022/10/05 09:37:45;;;;;;;12.60;5.53;;;;;;;;;;5074261;28;20457;-67
2022/10/05 09:40:27;;;;;;;4.50;4.10;;;;;;;;;;5073579;28;20855;-67
2022/10/05 09:43:15;;;;;;;6.33;4.40;;;;;;;;;;5074220;28;20427;-67
2022/10/05 09:46:00;;;;;;;6.10;4.77;;;;;;;;;;5070047;28;20465;-66
2022/10/05 09:48:44;;;;;;;10.13;5.37;;;;;;;;;;5074054;28;20444;-67
2022/10/05 09:51:30;;;;;;;6.50;4.20;;;;;;;;;;5073254;28;20523;-67
2022/10/05 09:54:16;;;;;;;5.30;4.80;;;;;;;;;;5074010;28;20469;-67
2022/10/05 09:57:04;;;;;;;6.63;4.30;;;;;;;;;;5073232;28;20445;-67
2022/10/05 09:59:51;;;;;;;5.73;4.83;;;;;;;;;;5073558;28;20474;-67
2022/10/05 10:02:27;;;;;;;5.03;4.00;;;;;;;;;;5053025;28;20447;-67
2022/10/05 10:05:15;;;;;;;8.73;5.00;;;;;;;;;;5073608;28;20441;-67
2022/10/05 10:07:49;;;;;;;5.00;4.50;;;;;;;;;;5069197;28;20446;-67
2022/10/05 10:10:33;;;;;;;5.93;4.33;;;;;;;;;;5073438;28;20442;-67
2022/10/05 10:13:15;;;;;;;4.97;4.57;;;;;;;;;;5073640;28;20466;-67
2022/10/05 10:15:51;;;;;;;8.13;4.47;;;;;;;;;;5073630;28;20430;-69
2022/10/05 10:18:28;;;;;;;4.10;3.67;;;;;;;;;;5073686;28;20475;-67
2022/10/05 10:21:15;;;;;;;15.87;4.47;;;;;;;;;;5073512;28;20833;-67
2022/10/05 10:23:53;;;;;;;4.33;3.90;;;;;;;;;;5072832;28;20484;-66
2022/10/05 10:26:45;;;;;;;5.80;4.93;;;;;;;;;;5073435;28;20442;-66
2022/10/05 10:29:24;;;;;;;7.00;4.27;;;;;;;;;;5053294;28;20487;-66
2022/10/05 10:31:53;;;;;;;4.47;4.07;;;;;;;;;;5072789;28;20645;-66
2022/10/05 10:34:51;;;;;;;6.40;4.30;;;;;;;;;;5071622;28;20448;-66
2022/10/05 10:37:32;;;;;;;4.07;3.77;;;;;;;;;;5010764;28;20450;-66
2022/10/05 10:40:13;;;;;;;4.50;3.97;;;;;;;;;;5064470;28;20478;-66
2022/10/05 10:42:42;;;;;;;5.07;4.33;;;;;;;;;;5073663;28;20434;-66
2022/10/05 10:45:33;;;;;;;4.70;4.20;;;;;;;;;;5072599;28;21025;-66
2022/10/05 10:48:02;;;;;;;7.50;4.07;;;;;;;;;;5072615;28;20425;-66
2022/10/05 10:50:43;;;;;;;3.60;3.27;;;;;;;;;;5072771;28;20497;-66
2022/10/05 10:53:27;;;;;;;4.07;3.67;;;;;;;;;;5073066;28;20467;-66
2022/10/05 10:56:00;;;;;;;4.63;3.73;;;;;;;;;;5073047;28;20442;-66
2022/10/05 10:58:39;;;;;;;5.27;3.90;;;;;;;;;;5072473;28;20475;-66
2022/10/05 11:01:12;;;;;;;6.03;3.50;;;;;;;;;;5072682;28;20927;-66
2022/10/05 11:03:51;;;;;;;4.30;3.63;;;;;;;;;;5072985;28;20441;-66
2022/10/05 11:06:37;;;;;;;3.77;3.47;;;;;;;;;;5072945;28;21035;-66
2022/10/05 11:09:23;;;;;;;4.83;3.50;;;;;;;;;;5073138;28;20438;-66
2022/10/05 11:12:06;;;;;;;5.30;3.43;;;;;;;;;;5073097;28;20527;-66
2022/10/05 11:14:43;;;;;;;7.20;3.93;;;;;;;;;;5072870;28;20426;-66
2022/10/05 11:17:23;;;;;;;7.57;4.90;;;;;;;;;;5072688;28;20429;-66
2022/10/05 11:19:55;;;;;;;4.53;3.90;;;;;;;;;;5076697;28;20477;-66
2022/10/05 11:22:38;;;;;;;10.20;4.47;;;;;;;;;;5077004;28;20446;-66
2022/10/05 11:25:20;;;;;;;8.20;4.40;;;;;;;;;;5076880;28;20474;-66
2022/10/05 11:28:00;;;;;;;5.00;3.70;;;;;;;;;;5076771;28;20435;-66
2022/10/05 11:30:34;;;;;;;4.27;3.27;;;;;;;;;;5076763;28;20426;-66
2022/10/05 11:33:20;;;;;;;8.57;3.73;;;;;;;;;;5074811;28;20952;-66
2022/10/05 11:35:59;;;;;;;6.63;3.40;;;;;;;;;;5076380;28;20916;-66
2022/10/05 11:38:36;;;;;;;5.03;4.03;;;;;;;;;;5076422;28;20444;-66
2022/10/05 11:41:16;;;;;;;5.20;3.50;;;;;;;;;;5076078;28;20436;-66
2022/10/05 11:43:50;;;;;;;7.40;3.53;;;;;;;;;;5076555;28;20427;-67
2022/10/05 11:46:19;;;;;;;9.80;4.90;;;;;;;;;;5076725;28;20454;-66
2022/10/05 11:48:52;;;;;;;3.43;3.10;;;;;;;;;;5075943;28;20451;-66
2022/10/05 11:51:28;;;;;;;10.80;3.60;;;;;;;;;;5076163;28;20429;-66
2022/10/05 11:53:59;;;;;;;4.00;3.20;;;;;;;;;;5075795;28;20460;-66
2022/10/05 11:56:28;;;;;;;7.83;3.50;;;;;;;;;;5076219;28;20788;-66
2022/10/05 11:58:58;;;;;;;9.00;6.50;;;;;;;;;;5075874;28;20478;-65
2022/10/05 12:01:29;;;;;;;7.43;4.57;;;;;;;;;;5075410;28;20935;-66
2022/10/05 12:04:06;;;;;;;3.57;3.27;;;;;;;;;;5076253;28;20432;-66
2022/10/05 12:06:53;;;;;;;7.70;3.93;;;;;;;;;;5075660;28;20435;-66
2022/10/05 12:09:32;;;;;;;4.30;3.80;;;;;;;;;;5075996;28;20443;-66
2022/10/05 12:12:04;;;;;;;7.70;3.37;;;;;;;;;;5075873;28;20432;-66
2022/10/05 12:14:36;;;;;;;3.27;3.07;;;;;;;;;;5076326;28;20435;-65
2022/10/05 12:17:07;;;;;;;8.70;4.00;;;;;;;;;;5075328;28;20439;-66
2022/10/05 12:19:37;;;;;;;7.07;3.40;;;;;;;;;;5075386;28;20511;-66
2022/10/05 12:22:09;;;;;;;3.90;3.27;;;;;;;;;;5075332;28;20882;-66
2022/10/05 12:24:50;;;;;;;6.67;3.30;;;;;;;;;;5075743;28;20866;-66
2022/10/05 12:27:19;;;;;;;6.00;3.30;;;;;;;;;;5076223;28;20766;-66
2022/10/05 12:29:51;;;;;;;7.47;3.77;;;;;;;;;;5074591;28;20462;-65
2022/10/05 12:32:21;;;;;;;7.47;3.57;;;;;;;;;;5075561;28;20518;-65
2022/10/05 12:34:52;;;;;;;4.70;3.60;;;;;;;;;;5075670;28;20894;-66
2022/10/05 12:37:34;;;;;;;5.20;3.67;;;;;;;;;;5075278;28;20436;-66
2022/10/05 12:40:05;;;;;;;2.63;2.43;;;;;;;;;;5075355;28;20464;-65
2022/10/05 12:42:36;;;;;;;3.83;3.43;;;;;;;;;;5075891;28;20526;-66
2022/10/05 12:45:12;;;;;;;3.47;3.00;;;;;;;;;;5074981;28;20433;-66
2022/10/05 12:47:45;;;;;;;5.87;3.17;;;;;;;;;;5075186;28;20550;-66
2022/10/05 12:50:25;;;;;;;3.80;3.43;;;;;;;;;;5075610;28;20437;-66
2022/10/05 12:53:00;;;;;;;10.93;3.67;;;;;;;;;;5075050;28;20487;-66
2022/10/05 12:55:32;;;;;;;5.03;4.53;;;;;;;;;;5075309;28;20490;-66
2022/10/05 12:58:09;;;;;;;4.90;3.27;;;;;;;;;;5075223;28;20453;-66
2022/10/05 13:00:39;;;;;;;5.00;3.13;;;;;;;;;;5074686;28;20469;-66
2022/10/05 13:03:13;;;;;;;3.43;3.13;;;;;;;;;;5074529;28;20459;-66
2022/10/05 13:05:44;;;;;;;4.00;3.47;;;;;;;;;;5074562;28;20434;-66
2022/10/05 13:08:20;;;;;;;3.60;3.17;;;;;;;;;;5074498;28;20568;-66
2022/10/05 13:10:49;;;;;;;6.87;3.60;;;;;;;;;;5074916;28;20442;-66
2022/10/05 13:13:25;;;;;;;3.93;3.27;;;;;;;;;;5074468;28;20465;-66
2022/10/05 13:15:58;;;;;;;10.40;3.80;;;;;;;;;;5074844;28;20439;-66
2022/10/05 13:18:30;;;;;;;6.13;2.63;;;;;;;;;;5074635;28;20770;-66
2022/10/05 13:21:03;;;;;;;6.63;3.67;;;;;;;;;;5074720;28;20471;-65
2022/10/05 13:23:34;;;;;;;6.10;3.53;;;;;;;;;;5074428;28;20574;-66
2022/10/05 13:26:04;;;;;;;20.90;3.70;;;;;;;;;;5075081;28;20858;-65
2022/10/05 13:28:34;;;;;;;9.53;3.10;;;;;;;;;;5074164;28;20443;-66
2022/10/05 13:31:07;;;;;;;5.33;2.83;;;;;;;;;;5074513;28;20433;-66
2022/10/05 13:33:48;;;;;;;3.20;2.90;;;;;;;;;;5074277;28;20433;-66
2022/10/05 13:36:20;;;;;;;5.70;2.77;;;;;;;;;;5072676;28;20471;-66
2022/10/05 13:38:53;;;;;;;5.97;3.10;;;;;;;;;;5073787;28;20431;-65
2022/10/05 13:41:23;;;;;;;2.70;2.50;;;;;;;;;;5073389;28;20555;-66
2022/10/05 13:43:56;;;;;;;3.33;3.13;;;;;;;;;;5073578;28;20906;-66
2022/10/05 13:46:28;;;;;;;3.27;3.00;;;;;;;;;;5073649;28;20865;-67
2022/10/05 13:49:00;;;;;;;5.97;3.00;;;;;;;;;;5074064;28;20445;-67
2022/10/05 13:51:36;;;;;;;3.57;2.73;;;;;;;;;;5073598;28;20431;-66
2022/10/05 13:54:06;;;;;;;3.40;2.97;;;;;;;;;;5073760;28;20455;-67
2022/10/05 13:56:35;;;;;;;3.80;3.37;;;;;;;;;;5074163;28;20446;-66
2022/10/05 13:59:09;;;;;;;4.07;3.40;;;;;;;;;;5073767;28;20849;-66
2022/10/05 14:01:41;;;;;;;3.87;3.20;;;;;;;;;;5073724;28;20424;-66
2022/10/05 14:04:15;;;;;;;4.87;3.20;;;;;;;;;;5073233;28;20436;-66
2022/10/05 14:06:44;;;;;;;3.70;3.40;;;;;;;;;;5074315;28;20454;-67
2022/10/05 14:09:14;;;;;;;3.80;3.50;;;;;;;;;;5073235;28;20441;-67
2022/10/05 14:11:48;;;;;;;3.40;3.10;;;;;;;;;;5073330;28;20432;-66
2022/10/05 14:14:17;;;;;;;3.60;2.90;;;;;;;;;;5073122;28;20438;-66
2022/10/05 14:16:48;;;;;;;2.80;2.60;;;;;;;;;;5073540;28;20444;-66
2022/10/05 14:19:21;;;;;;;4.53;2.80;;;;;;;;;;5073075;28;20914;-66
2022/10/05 14:21:54;;;;;;;2.90;2.60;;;;;;;;;;5073195;28;20514;-66
2022/10/05 14:24:28;;;;;;;3.10;2.80;;;;;;;;;;5073057;28;20487;-66
2022/10/05 14:26:55;;;;;;;3.10;2.90;;;;;;;;;;5073413;28;20432;-66
2022/10/05 14:29:24;;;;;;;6.60;3.43;;;;;;;;;;5073241;28;20441;-67
2022/10/05 14:31:54;;;;;;;4.67;2.80;;;;;;;;;;5073446;28;20449;-66
2022/10/05 14:34:28;;;;;;;11.10;3.40;;;;;;;;;;5073007;28;20807;-66
2022/10/05 14:36:58;;;;;;;4.50;2.63;;;;;;;;;;5073223;28;20804;-67
2022/10/05 14:39:25;;;;;;;3.00;2.80;;;;;;;;;;5072796;28;20888;-66
2022/10/05 14:41:53;;;;;;;2.77;2.57;;;;;;;;;;5073287;28;20481;-66
2022/10/05 14:44:28;;;;;;;8.13;3.30;;;;;;;;;;5073214;28;20444;-66
2022/10/05 14:46:57;;;;;;;4.70;2.70;;;;;;;;;;5073713;28;20441;-66
2022/10/05 14:49:26;;;;;;;3.40;3.10;;;;;;;;;;5073218;28;20449;-67
2022/10/05 14:51:54;;;;;;;3.23;3.00;;;;;;;;;;5073251;28;20440;-66
2022/10/05 14:54:35;;;;;;;3.40;2.70;;;;;;;;;;5076475;28;20941;-66
2022/10/05 14:57:16;;;;;;;3.33;2.53;;;;;;;;;;5077103;28;20496;-67
2022/10/05 14:59:54;;;;;;;4.47;3.00;;;;;;;;;;5077142;28;20432;-66
2022/10/05 15:02:30;;;;;;;4.17;2.90;;;;;;;;;;5077094;28;20435;-66
2022/10/05 15:05:00;;;;;;;3.10;2.90;;;;;;;;;;5077375;28;20477;-66
2022/10/05 15:07:29;;;;;;;4.17;3.80;;;;;;;;;;5077022;28;20492;-66
2022/10/05 15:10:03;;;;;;;2.63;2.43;;;;;;;;;;5076712;28;20447;-65
2022/10/05 15:12:32;;;;;;;3.07;2.77;;;;;;;;;;5077374;28;20449;-66
2022/10/05 15:15:02;;;;;;;3.73;2.90;;;;;;;;;;5076602;28;20443;-66